Latest Weather Observations for Sydney Olympic Park

IDN60901

Issued at 8:21 pm EST Monday 26 September 2016 (issued every 10 minutes, with the page automatically refreshed every 10 minutes)

About weather observations | Map of Sydney area stations | Latest observations for Sydney area | Other Formats
Station Details ID: 066212 Name: SYDNEY OLYMPIC PARK AWS (ARCHERY CENTRE) Lat: -33.83 Lon: 151.07 Height: 4.0 m
Data from the previous 72 hours. | See also: Recent months at Sydney Olympic Park
Date/Time
EST
Temp
°C
App
Temp
°C
Dew
Point
°C
Rel
Hum
%
Delta-T
°C
Wind Press
QNH
hPa
Press
MSL
hPa
Rain since
9am
mm
Dir  Spd
km/h
Gust
km/h
Spd
kts
Gust
kts
26/08:00pm 14.3 12.0 4.9 53 4.4 W 6 15 3 8 - - 0.0
26/07:30pm 12.9 12.7 9.0 77 2.0 CALM 0 7 0 4 - - 0.0
26/07:00pm 13.2 13.0 9.1 76 2.1 CALM 0 0 0 0 - - 0.0
26/06:30pm 14.3 13.7 9.1 71 2.6 SE 2 7 1 4 - - 0.0
26/06:00pm 15.6 14.0 8.1 61 3.8 SSE 6 9 3 5 - - 0.0
26/05:30pm 16.3 14.0 7.5 56 4.4 SSE 9 13 5 7 - - 0.0
26/05:00pm 16.9 14.4 8.1 56 4.5 SSE 11 15 6 8 - - 0.0
26/04:30pm 17.3 13.9 7.6 53 4.9 SSE 15 20 8 11 - - 0.0
26/04:00pm 18.6 15.4 8.3 51 5.3 E 15 24 8 13 - - 0.0
26/03:30pm 18.1 14.2 7.2 49 5.5 E 17 24 9 13 - - 0.0
26/03:00pm 20.0 16.1 7.1 43 6.5 SE 17 26 9 14 - - 0.0
26/02:30pm 21.1 19.1 7.0 40 7.2 ESE 7 17 4 9 - - 0.0
26/02:00pm 21.1 19.3 5.5 36 7.7 SW 4 9 2 5 - - 0.0
26/01:30pm 20.9 18.4 4.9 35 7.8 NW 7 11 4 6 - - 0.0
26/01:00pm 20.4 17.8 6.0 39 7.2 NNW 9 15 5 8 - - 0.0
26/12:30pm 20.3 17.2 7.3 43 6.6 NW 13 22 7 12 - - 0.0
26/12:00pm 19.2 16.6 6.0 42 6.5 SW 9 20 5 11 - - 0.0
26/11:30am 18.9 15.8 5.7 42 6.5 WSW 11 17 6 9 - - 0.0
26/11:00am 18.6 15.9 7.4 48 5.7 W 11 17 6 9 - - 0.0
26/10:30am 17.5 13.9 4.8 43 6.1 W 13 22 7 12 - - 0.0
26/10:00am 17.1 14.5 6.0 48 5.4 SW 9 19 5 10 - - 0.0
26/09:30am 16.4 13.2 5.1 47 5.4 WSW 11 22 6 12 - - 0.0
26/09:00am 15.8 12.4 5.7 51 4.8 W 13 20 7 11 - - 0.0
26/08:30am 15.1 12.4 5.6 53 4.5 WSW 9 20 5 11 - - 0.0
26/08:00am 14.3 10.9 5.7 56 4.1 WSW 13 22 7 12 - - 0.0
26/07:30am 13.3 11.0 7.3 67 2.9 WSW 9 15 5 8 - - 0.0
26/07:00am 11.5 9.7 8.0 79 1.7 WSW 7 11 4 6 - - 0.0
26/06:30am 10.2 8.7 8.3 88 0.9 W 6 11 3 6 - - 0.0
26/06:00am 9.5 8.0 8.4 93 0.5 SW 6 7 3 4 - - 0.0
26/05:30am 9.8 9.7 9.5 98 0.1 CALM 0 6 0 3 - - 0.0
26/05:00am 10.3 10.4 10.1 99 0.1 CALM 0 0 0 0 - - 0.0
26/04:30am 10.9 10.4 10.7 99 0.1 WSW 4 7 2 4 - - 0.0
26/04:00am 10.7 10.9 10.5 99 0.1 CALM 0 0 0 0 - - 0.0
26/03:30am 10.6 10.0 10.4 99 0.1 WSW 4 6 2 3 - - 0.0
26/03:00am 10.6 10.7 10.1 97 0.3 CALM 0 0 0 0 - - 0.0
26/02:30am 10.7 10.8 10.2 97 0.3 CALM 0 0 0 0 - - 0.0
26/02:00am 11.0 11.2 10.4 96 0.3 CALM 0 4 0 2 - - 0.0
26/01:30am 11.6 11.5 10.7 94 0.5 SW 2 6 1 3 - - 0.0
26/01:00am 12.3 12.3 11.0 92 0.7 WSW 2 7 1 4 - - 0.0
26/12:30am 12.1 11.7 11.0 93 0.6 W 4 7 2 4 - - 0.0
26/12:00am 12.7 12.7 11.3 91 0.7 W 2 6 1 3 - - 0.0
 
Date/Time
EST
Temp
°C
App
Temp
°C
Dew
Point
°C
Rel
Hum
%
Delta-T
°C
Wind Press
QNH
hPa
Press
MSL
hPa
Rain since
9am
mm
Dir  Spd
km/h
Gust
km/h
Spd
kts
Gust
kts
25/11:30pm 13.7 14.2 11.6 87 1.1 CALM 0 0 0 0 - - 0.0
25/11:00pm 13.3 12.6 12.0 92 0.7 WNW 7 9 4 5 - - 0.0
25/10:30pm 12.8 13.2 11.2 90 0.8 CALM 0 0 0 0 - - 0.0
25/10:00pm 13.8 14.2 11.3 85 1.3 CALM 0 0 0 0 - - 0.0
25/09:30pm 14.2 14.2 11.2 82 1.6 W 2 7 1 4 - - 0.0
25/09:00pm 14.4 14.9 11.6 83 1.5 CALM 0 0 0 0 - - 0.0
25/08:30pm 14.4 14.8 11.4 82 1.6 CALM 0 6 0 3 - - 0.0
25/08:00pm 14.0 13.5 10.6 80 1.8 WSW 4 7 2 4 - - 0.0
25/07:30pm 14.9 14.2 9.9 72 2.6 WSW 4 9 2 5 - - 0.0
25/07:00pm 15.9 15.6 10.2 69 3.0 S 2 7 1 4 - - 0.0
25/06:30pm 16.6 14.7 10.5 67 3.2 SSW 11 17 6 9 - - 0.0
25/06:00pm 16.7 15.7 11.0 69 3.1 S 7 15 4 8 - - 0.0
25/05:30pm 17.2 14.6 10.8 66 3.4 SSE 15 20 8 11 - - 0.0
25/05:00pm 17.5 15.2 10.6 64 3.7 S 13 20 7 11 - - 0.0
25/04:30pm 18.4 16.6 10.8 61 4.1 SSE 11 15 6 8 - - 0.0
25/04:00pm 17.9 15.9 10.3 61 4.1 SSE 11 17 6 9 - - 0.0
25/03:30pm 17.5 15.6 10.6 64 3.7 SSE 11 20 6 11 - - 0.0
25/03:00pm 16.9 14.4 11.2 69 3.1 SSE 15 22 8 12 - - 0.0
25/02:30pm 18.5 16.2 11.6 64 3.8 SE 15 22 8 12 - - 0.0
25/02:00pm 19.0 17.2 12.0 64 3.9 SE 13 20 7 11 - - 0.0
25/01:30pm 21.0 18.6 9.9 49 6.0 WNW 13 20 7 11 - - 0.0
25/01:00pm 21.5 19.1 11.5 53 5.6 NW 15 26 8 14 - - 0.0
25/12:30pm 20.8 19.8 10.9 53 5.4 WSW 7 13 4 7 - - 0.0
25/12:00pm 21.0 19.6 12.2 57 4.9 WSW 11 22 6 12 - - 0.0
25/11:30am 20.3 19.1 11.5 57 4.9 WSW 9 17 5 9 - - 0.0
25/11:00am 18.5 17.5 12.3 67 3.4 NW 9 15 5 8 - - 0.0
25/10:30am 17.1 15.9 11.6 70 3.0 NW 9 17 5 9 - - 0.0
25/10:00am 16.2 15.2 12.2 77 2.2 NW 9 13 5 7 - - 0.0
25/09:30am 15.5 14.2 11.3 76 2.3 NW 9 15 5 8 - - 0.0
25/09:00am 15.3 14.1 11.7 79 1.9 NW 9 13 5 7 - - 1.8
25/08:30am 15.5 14.5 12.4 82 1.7 NW 9 13 5 7 - - 1.8
25/08:00am 14.4 13.9 12.8 90 0.9 NW 7 9 4 5 - - 1.8
25/07:30am 13.8 13.3 12.5 92 0.7 NW 7 11 4 6 - - 1.8
25/07:00am 13.5 13.3 12.9 96 0.3 WNW 6 7 3 4 - - 1.8
25/06:32am 13.1 12.7 12.3 95 0.4 NW 6 7 3 4 - - 1.8
25/06:30am 13.1 12.7 12.3 95 0.4 NNW 6 9 3 5 - - 1.8
25/06:00am 13.4 13.0 12.5 94 0.5 NNW 6 11 3 6 - - 1.2
25/05:57am 13.4 12.9 12.1 92 0.7 NNW 6 11 3 6 - - 1.2
25/05:30am 13.6 14.2 11.8 89 1.0 CALM 0 6 0 3 - - 0.8
25/05:00am 14.0 13.3 11.3 84 1.4 NW 6 7 3 4 - - 0.6
25/04:30am 14.4 13.5 11.2 81 1.7 NW 7 11 4 6 - - 0.4
25/04:00am 14.7 13.9 11.7 82 1.6 NW 7 13 4 7 - - 0.2
25/03:30am 15.3 13.6 12.6 84 1.5 NW 13 26 7 14 - - 0.2
25/03:00am 15.5 15.2 14.4 93 0.6 WNW 9 15 5 8 - - 0.0
25/02:30am 15.5 15.2 14.5 94 0.6 NW 9 13 5 7 - - 0.0
25/02:00am 15.5 16.9 14.5 94 0.6 CALM 0 6 0 3 - - 0.0
25/01:30am 15.0 16.1 14.5 97 0.3 NW 2 7 1 4 - - 0.0
25/01:00am 14.9 16.4 14.6 98 0.2 CALM 0 0 0 0 - - 0.0
25/12:30am 14.7 16.0 14.2 97 0.3 CALM 0 6 0 3 - - 0.0
25/12:00am 14.6 15.9 14.1 97 0.3 CALM 0 0 0 0 - - 0.0
 
Date/Time
EST
Temp
°C
App
Temp
°C
Dew
Point
°C
Rel
Hum
%
Delta-T
°C
Wind Press
QNH
hPa
Press
MSL
hPa
Rain since
9am
mm
Dir  Spd
km/h
Gust
km/h
Spd
kts
Gust
kts
24/11:30pm 14.7 16.0 14.2 97 0.3 CALM 0 0 0 0 - - 0.0
24/11:00pm 14.9 16.3 14.3 96 0.3 CALM 0 0 0 0 - - 0.0
24/10:30pm 15.0 16.0 14.2 95 0.5 NNW 2 6 1 3 - - 0.0
24/10:00pm 15.1 16.4 14.1 94 0.6 CALM 0 0 0 0 - - 0.0
24/09:30pm 15.2 16.3 13.6 90 0.9 CALM 0 0 0 0 - - 0.0
24/09:00pm 15.9 17.3 14.4 91 0.9 CALM 0 0 0 0 - - 0.0
24/08:30pm 16.4 17.7 14.2 87 1.3 CALM 0 0 0 0 - - 0.0
24/08:00pm 17.1 18.3 13.8 81 1.9 CALM 0 0 0 0 - - 0.0
24/07:30pm 18.2 18.3 14.5 79 2.1 E 7 11 4 6 - - 0.0
24/07:00pm 18.3 17.9 14.2 77 2.4 E 9 15 5 8 - - 0.0
24/06:30pm 18.4 17.9 13.9 75 2.6 E 9 15 5 8 - - 0.0
24/06:00pm 18.8 18.5 13.4 71 3.1 ENE 7 15 4 8 - - 0.0
24/05:30pm 19.4 18.3 13.1 67 3.6 E 11 19 6 10 - - 0.0
24/05:00pm 20.0 18.4 12.7 63 4.1 E 13 20 7 11 - - 0.0
24/04:30pm 20.3 18.6 13.5 65 3.9 E 15 20 8 11 - - 0.0
24/04:00pm 20.5 18.8 13.5 64 4.0 ESE 15 22 8 12 - - 0.0
24/03:30pm 21.2 19.2 13.9 63 4.2 ESE 17 20 9 11 - - 0.0
24/03:00pm 21.2 18.9 13.1 60 4.6 E 17 24 9 13 - - 0.0
24/02:30pm 22.0 19.7 13.1 57 5.1 ESE 17 26 9 14 - - 0.0
24/02:00pm 21.0 19.2 12.2 57 4.9 E 13 20 7 11 - - 0.0
24/01:30pm 21.8 19.7 12.4 55 5.3 ESE 15 17 8 9 - - 0.0
24/01:00pm 23.2 22.3 11.3 47 6.6 E 7 11 4 6 - - 0.0
24/12:30pm 22.6 21.3 11.4 49 6.2 E 9 13 5 7 - - 0.0
24/12:00pm 22.9 22.7 11.9 50 6.2 ENE 4 9 2 5 - - 0.0
24/11:30am 21.4 20.1 11.1 52 5.7 ENE 9 15 5 8 - - 0.0
24/11:00am 21.2 20.4 11.0 52 5.6 NNE 6 11 3 6 - - 0.0
24/10:30am 20.4 19.7 11.9 58 4.7 SSW 7 11 4 6 - - 0.0
24/10:00am 20.5 20.7 13.0 62 4.3 NE 4 9 2 5 - - 0.0
24/09:30am 19.3 19.0 11.6 61 4.2 W 4 11 2 6 - - 0.0
24/09:00am 18.0 17.4 11.6 66 3.5 SW 6 13 3 7 - - 0.0
24/08:30am 17.2 17.0 11.7 70 3.0 W 4 11 2 6 - - 0.0
24/08:00am 15.7 15.1 12.3 80 1.9 WNW 7 13 4 7 - - 0.0
24/07:30am 13.7 12.7 12.4 92 0.7 WNW 9 13 5 7 - - 0.0
24/07:00am 12.2 11.7 12.0 99 0.1 NW 6 7 3 4 - - 0.0
24/06:30am 10.6 9.6 10.4 99 0.1 WNW 6 7 3 4 - - 0.0
24/06:00am 10.1 10.1 9.8 98 0.2 CALM 0 0 0 0 - - 0.0
24/05:30am 10.3 10.4 10.1 99 0.1 CALM 0 0 0 0 - - 0.0
24/05:00am 10.4 10.5 10.1 98 0.2 CALM 0 0 0 0 - - 0.0
24/04:30am 10.8 11.0 10.6 99 0.1 CALM 0 0 0 0 - - 0.0
24/04:00am 10.9 10.0 10.7 99 0.1 W 6 7 3 4 - - 0.0
24/03:30am 10.9 11.1 10.6 98 0.2 CALM 0 0 0 0 - - 0.0
24/03:00am 11.2 11.4 10.7 97 0.3 CALM 0 0 0 0 - - 0.0
24/02:30am 11.5 11.8 10.9 96 0.3 CALM 0 0 0 0 - - 0.0
24/02:00am 11.6 11.8 10.7 94 0.5 CALM 0 0 0 0 - - 0.0
24/01:30am 11.7 10.7 10.4 92 0.7 WNW 6 9 3 5 - - 0.0
24/01:00am 12.2 12.5 10.8 91 0.7 CALM 0 6 0 3 - - 0.0
24/12:30am 12.6 12.1 10.8 89 0.9 WNW 4 7 2 4 - - 0.0
24/12:00am 13.1 13.4 10.8 86 1.2 CALM 0 0 0 0 - - 0.0
 
Date/Time
EST
Temp
°C
App
Temp
°C
Dew
Point
°C
Rel
Hum
%
Delta-T
°C
Wind Press
QNH
hPa
Press
MSL
hPa
Rain since
9am
mm
Dir  Spd
km/h
Gust
km/h
Spd
kts
Gust
kts
23/11:30pm 13.5 13.5 11.0 85 1.3 WNW 2 7 1 4 - - 0.0
23/11:00pm 13.9 14.2 10.9 82 1.6 CALM 0 6 0 3 - - 0.0
23/10:30pm 13.9 13.3 10.3 79 1.9 WNW 4 7 2 4 - - 0.0
23/10:00pm 15.3 15.2 10.7 74 2.4 SW 2 9 1 5 - - 0.0
23/09:30pm 15.9 14.9 11.1 73 2.6 SSW 7 13 4 7 - - 0.0
23/09:00pm 14.9 15.1 10.7 76 2.2 CALM 0 0 0 0 - - 0.0
23/08:30pm 15.7 15.0 10.2 70 2.9 SSE 4 9 2 5 - - 0.0

Latest Capital City Observations: Canberra | Sydney | Melbourne | Brisbane | Adelaide | Perth | Hobart | Darwin

Other Formats:

Comma delimited format used in spreadsheet applications
http://www.bom.gov.au/fwo/IDN60901/IDN60901.95765.axf

JavaScript Object Notation format (JSON) in row-major order
http://www.bom.gov.au/fwo/IDN60901/IDN60901.95765.json